Flight Track Log - Related Links

Times and Time Zones

All times are in EDT time to prevent confusion due to time zone crossing. See the N258SR flight status page for this flight to view local times or setup timezone preferences in your user account.


Time Position Orientation Groundspeed Altitude Reporting Facility
EDT Latitude Longitude Course Direction KTS MPH feet Rate Location/Type
Wed 02:12:32 PM 38.7167 -77.5833 333° Northwest 138 159 1,600  Level Potomac TRACON
Wed 02:21:36 PM 38.9667 -77.7500 349° North 157 181 5,100 241 Climbing Potomac TRACON
Wed 02:26:37 PM 39.1667 -77.8000 360° North 141 162 5,000 33 Descending Potomac TRACON
Wed 02:27:38 PM 39.2167 -77.8000 334° Northwest 146 168 5,300 319 Climbing Potomac TRACON
Wed 02:28:11 PM 39.2369 -77.8131 345° North 145 167 5,500 447 Climbing Washington Center
Wed 02:29:12 PM 39.2783 -77.8278 349° North 150 173 6,000 446 Climbing Washington Center
Wed 02:30:12 PM 39.3136 -77.8369 347° North 179 206 6,400 353 Climbing Washington Center
Wed 02:31:11 PM 39.3528 -77.8489 North 174 200 6,700 252 Climbing Washington Center
Wed 02:32:11 PM 39.3967 -77.8422 40° Northeast 160 184 6,900 198 Climbing Washington Center
Wed 02:33:12 PM 39.4308 -77.8056 35° Northeast 147 169 7,100 98 Climbing Washington Center
Wed 02:34:13 PM 39.4689 -77.7717 36° Northeast 152 175 7,100  Level Washington Center
Wed 02:35:13 PM 39.5050 -77.7378 32° Northeast 158 182 7,100  Level Washington Center
Wed 02:36:11 PM 39.5431 -77.7067 32° Northeast 158 182 7,100  Level Washington Center
Wed 02:37:11 PM 39.5853 -77.6731 44° Northeast 158 182 7,100 -2 Level Washington Center
Wed 03:35:38 PM 41.4331 -75.2811 59° Northeast 198 228 7,000 -2 Descending Boston Center
Wed 03:40:38 PM 41.5564 -75.0064 61° Northeast 167 192 7,000  Level Boston Center
Wed 03:41:38 PM 41.5783 -74.9544 65° Northeast 167 192 7,000  Level Boston Center
Wed 03:42:38 PM 41.6006 -74.8914 72° East 167 192 7,000  Level Boston Center
Wed 03:43:38 PM 41.6142 -74.8364 70° East 167 192 7,000  Level Boston Center
Wed 03:44:38 PM 41.6322 -74.7706 71° East 167 192 7,000  Level Boston Center
Wed 03:45:38 PM 41.6458 -74.7181 70° East 167 192 7,000  Level Boston Center
Wed 03:46:38 PM 41.6639 -74.6522 71° East 167 192 7,000  Level Boston Center
Wed 03:47:38 PM 41.6775 -74.5997 69° East 162 186 7,000  Level Boston Center
Wed 03:48:38 PM 41.6975 -74.5281 71° East 167 192 7,000  Level Boston Center
Wed 03:49:38 PM 41.7111 -74.4758 71° East 167 192 7,000  Level Boston Center
Wed 03:50:38 PM 41.7289 -74.4067 69° East 167 192 7,000  Level Boston Center
Wed 03:51:38 PM 41.7444 -74.3517 70° East 167 192 7,000  Level Boston Center
Wed 03:52:38 PM 41.7622 -74.2853 70° East 167 192 7,000  Level Boston Center
Wed 03:53:38 PM 41.7778 -74.2272 72° East 167 192 7,000  Level Boston Center
Wed 03:54:38 PM 41.7933 -74.1636 71° East 167 192 7,000  Level Boston Center
Wed 03:55:38 PM 41.8089 -74.1028 70° East 167 192 7,000  Level Boston Center
Wed 03:56:38 PM 41.8264 -74.0392 70° East 167 192 7,000  Level Boston Center
Wed 03:57:38 PM 41.8439 -73.9756 71° East 167 192 7,000  Level Boston Center
Wed 03:58:38 PM 41.8594 -73.9147 71° East 167 192 7,000  Level Boston Center
Wed 03:59:38 PM 41.8747 -73.8536 71° East 167 192 7,000  Level Boston Center
Wed 04:00:38 PM 41.8900 -73.7928 72° East 167 192 7,000  Level Boston Center
Wed 04:01:38 PM 41.9053 -73.7289 69° East 172 198 7,000  Level Boston Center
Wed 04:02:38 PM 41.9228 -73.6678 70° East 172 198 7,000  Level Boston Center
Wed 04:03:38 PM 41.9400 -73.6039 71° East 172 198 7,000  Level Boston Center
Wed 04:04:38 PM 41.9553 -73.5428 73° East 172 198 7,000  Level Boston Center
Wed 04:05:14 PM 41.9639 -73.5039 74° East 179 206 7,000  Level Boston Center
Wed 04:05:51 PM 41.9728 -73.4622 66° East 179 206 7,000  Level Boston Center
Wed 04:06:38 PM 41.9897 -73.4119 75° East 172 198 7,000  Level Boston Center
Wed 04:07:46 PM 42.0050 -73.3369 66° East 181 208 7,000  Level Boston Center
Wed 04:08:38 PM 42.0222 -73.2842 56° Northeast 174 200 7,000  Level Boston Center
Wed 04:09:38 PM 42.0475 -73.2342 58° Northeast 174 200 7,000  Level Boston Center
Wed 04:10:38 PM 42.0772 -73.1700 57° Northeast 174 200 7,000  Level Boston Center
Wed 04:11:38 PM 42.1003 -73.1228 59° Northeast 179 206 7,000  Level Boston Center
Wed 04:12:38 PM 42.1300 -73.0558 60° Northeast 179 206 7,000  Level Boston Center
Wed 04:13:38 PM 42.1511 -73.0058 57° Northeast 179 206 7,000  Level Boston Center
Wed 04:14:38 PM 42.1806 -72.9444 60° Northeast 179 206 7,000  Level Boston Center
Wed 04:15:38 PM 42.2036 -72.8914 57° Northeast 179 206 7,000  Level Boston Center
Wed 04:16:38 PM 42.2331 -72.8297 61° Northeast 179 206 7,000  Level Boston Center
Wed 04:17:38 PM 42.2539 -72.7794 59° Northeast 199 229 7,000  Level Boston Center
Wed 04:18:38 PM 42.2814 -72.7178 59° Northeast 180 207 7,000  Level Boston Center
Wed 04:19:38 PM 42.3022 -72.6703 59° Northeast 180 207 7,000  Level Boston Center
Wed 04:20:38 PM 42.3294 -72.6086 57° Northeast 175 201 7,000  Level Boston Center
Wed 04:21:38 PM 42.3586 -72.5469 53° Northeast 175 201 7,000  Level Boston Center
Wed 04:22:38 PM 42.3878 -72.4936 48° Northeast 175 201 7,000  Level Boston Center
Wed 04:23:38 PM 42.4211 -72.4428 53° Northeast 175 201 7,000  Level Boston Center
Wed 04:24:38 PM 42.4525 -72.3867 52° Northeast 175 201 7,000  Level Boston Center
Wed 04:25:38 PM 42.4817 -72.3358 52° Northeast 175 201 7,000  Level Boston Center
Wed 04:26:38 PM 42.5128 -72.2825 54° Northeast 175 201 7,000  Level Boston Center
Wed 04:27:38 PM 42.5397 -72.2317 53° Northeast 170 196 7,000  Level Boston Center
Wed 04:28:38 PM 42.5731 -72.1722 53° Northeast 175 201 7,000  Level Boston Center
Wed 04:29:38 PM 42.6000 -72.1242 51° Northeast 175 201 7,000  Level Boston Center
Wed 04:30:38 PM 42.6333 -72.0675 51° Northeast 175 201 7,000  Level Boston Center
Wed 04:31:38 PM 42.6622 -72.0194 53° Northeast 175 201 7,000  Level Boston Center
Wed 04:32:38 PM 42.6953 -71.9600 51° Northeast 175 201 7,000  Level Boston Center
Wed 04:33:38 PM 42.7242 -71.9117 54° Northeast 175 201 7,000  Level Boston Center
Wed 04:34:38 PM 42.7572 -71.8492 51° Northeast 175 201 7,000  Level Boston Center
Wed 04:35:38 PM 42.7842 -71.8036 53° Northeast 175 201 7,000 50 Level Boston Center
Wed 04:36:38 PM 42.8192 -71.7408 53° Northeast 175 201 7,100  Climbing Boston Center
Wed 04:37:38 PM 42.8461 -71.6925 50° Northeast 175 201 7,000 -50 Descending Boston Center
Wed 04:38:39 PM 42.8811 -71.6353 53° Northeast 175 201 7,000  Level Boston Center
Wed 04:39:38 PM 42.9078 -71.5869 51° Northeast 175 201 7,000 -151 Level Boston Center
Wed 04:40:38 PM 42.9428 -71.5269 55° Northeast 175 201 6,700 -250 Descending Boston Center
Wed 04:41:38 PM 42.9694 -71.4753 51° Northeast 175 201 6,500 -250 Descending Boston Center
Wed 04:42:38 PM 43.0044 -71.4153 51° Northeast 175 201 6,200 -288 Descending Boston Center
Wed 04:43:22 PM 43.0333 -71.3667 48° Northeast 182 209 6,000 -231 Descending Boston TRACON
Wed 04:44:22 PM 43.0667 -71.3167 65° Northeast 183 211 5,800 -200 Descending Boston TRACON
Wed 04:45:22 PM 43.0833 -71.2667 56° Northeast 183 211 5,600 -250 Descending Boston TRACON
Wed 04:46:22 PM 43.1167 -71.2000 48° Northeast 183 211 5,300 -263 Descending Boston TRACON
Wed 04:47:16 PM 43.1500 -71.1500 65° Northeast 182 209 5,100 -111 Descending Boston TRACON
Wed 04:48:10 PM 43.1667 -71.1000 52° Northeast 178 205 5,100  Level Boston TRACON
Wed 04:55:32 PM 43.3677 -70.7390 41° Northeast  Level FlightAware Approximate
Wed 04:56:32 PM 43.4025 -70.6976 221° Southwest  Level Estimated
Wed 04:57:32 PM 43.3677 -70.7390 41° Northeast  Level Estimated
Wed 04:58:32 PM 43.4025 -70.6976 185° South  Level Estimated
Wed 04:59:32 PM 43.3833 -70.7000 185° South  Level FlightAware Approximate

Login

Don't have an account? Register now (free) for customized features, flight alerts, and more!